Time,TemperatureF,DewpointF,PressureIn,WindDirection,WindDirectionDegrees,WindSpeedMPH,WindSpeedGustMPH,Humidity,HourlyPrecipIn,Conditions,Clouds,dailyrainin,SolarRadiationWatts/m^2,SoftwareType,DateUTC
2013-11-01 00:02:00,30.0,21.0,-100.00,North,355,2.0,4.0,69,0.00,,,-99.99,0.000000,,2013-11-01 06:02:00,
2013-11-01 00:12:00,28.0,21.0,-100.00,NNE,12,3.0,5.0,75,0.00,,,-99.99,0.000000,,2013-11-01 06:12:00,
2013-11-01 00:42:00,28.0,21.0,-100.00,NNE,12,3.0,5.0,75,0.00,,,-99.99,0.000000,,2013-11-01 06:42:00,
2013-11-01 00:52:00,28.0,21.0,-100.00,NNE,12,3.0,5.0,75,0.00,,,-99.99,0.000000,,2013-11-01 06:52:00,
2013-11-01 01:02:00,28.0,21.0,-100.00,NNE,12,3.0,5.0,75,0.00,,,-99.99,0.000000,,2013-11-01 07:02:00,
2013-11-01 01:42:00,27.0,21.0,-100.00,North,7,2.0,7.0,79,0.00,,,-99.99,0.000000,,2013-11-01 07:42:00,
2013-11-01 01:52:00,27.0,21.0,-100.00,North,7,2.0,7.0,79,0.00,,,-99.99,0.000000,,2013-11-01 07:52:00,
2013-11-01 02:02:00,27.0,21.0,-100.00,North,7,2.0,7.0,79,0.00,,,-99.99,0.000000,,2013-11-01 08:02:00,
2013-11-01 02:11:00,27.0,21.0,-100.00,North,7,2.0,7.0,79,0.00,,,-99.99,0.000000,,2013-11-01 08:11:00,
2013-11-01 02:42:00,27.0,21.0,-100.00,NW,321,4.0,5.0,78,0.00,,,-99.99,0.000000,,2013-11-01 08:42:00,
2013-11-01 02:52:00,27.0,21.0,-100.00,NW,321,4.0,5.0,78,0.00,,,-99.99,0.000000,,2013-11-01 08:52:00,
2013-11-01 03:02:00,27.0,21.0,-100.00,NW,321,4.0,5.0,78,0.00,,,-99.99,0.000000,,2013-11-01 09:02:00,
2013-11-01 03:11:00,27.0,21.0,-100.00,NW,321,4.0,5.0,78,0.00,,,-99.99,0.000000,,2013-11-01 09:11:00,
2013-11-01 03:12:00,27.0,21.0,-100.00,NW,321,2.0,5.0,79,0.00,,,-99.99,0.000000,,2013-11-01 09:12:00,
2013-11-01 03:43:00,27.0,21.0,-100.00,NW,321,2.0,5.0,79,0.00,,,-99.99,0.000000,,2013-11-01 09:43:00,
2013-11-01 03:53:00,27.0,21.0,-100.00,NW,321,2.0,5.0,79,0.00,,,-99.99,0.000000,,2013-11-01 09:53:00,
2013-11-01 04:03:00,27.0,21.0,-100.00,NW,321,2.0,5.0,79,0.00,,,-99.99,0.000000,,2013-11-01 10:03:00,
2013-11-01 04:12:00,27.0,21.0,-100.00,NNE,33,2.0,5.0,78,0.00,,,-99.99,0.000000,,2013-11-01 10:12:00,
2013-11-01 04:42:00,27.0,21.0,-100.00,NNE,33,2.0,5.0,78,0.00,,,-99.99,0.000000,,2013-11-01 10:42:00,
2013-11-01 04:53:00,27.0,21.0,-100.00,NNE,33,2.0,5.0,78,0.00,,,-99.99,0.000000,,2013-11-01 10:53:00,
2013-11-01 05:02:00,27.0,21.0,-100.00,NNE,33,2.0,5.0,78,0.00,,,-99.99,0.000000,,2013-11-01 11:02:00,
2013-11-01 05:42:00,27.0,20.0,-100.00,NW,324,3.0,6.0,75,0.00,,,-99.99,0.000000,,2013-11-01 11:42:00,
2013-11-01 05:52:00,27.0,20.0,-100.00,NW,324,3.0,6.0,75,0.00,,,-99.99,0.000000,,2013-11-01 11:52:00,
2013-11-01 06:02:00,27.0,20.0,-100.00,NW,324,3.0,6.0,75,0.00,,,-99.99,0.000000,,2013-11-01 12:02:00,
2013-11-01 06:11:00,27.0,20.0,-100.00,NW,324,3.0,6.0,75,0.00,,,-99.99,0.000000,,2013-11-01 12:11:00,
2013-11-01 06:12:00,26.0,21.0,-100.00,SW,233,1.0,6.0,81,0.00,,,-99.99,0.000000,,2013-11-01 12:12:00,
2013-11-01 06:42:00,26.0,21.0,-100.00,SW,233,1.0,6.0,81,0.00,,,-99.99,0.000000,,2013-11-01 12:42:00,
2013-11-01 06:52:00,26.0,21.0,-100.00,SW,233,1.0,6.0,81,0.00,,,-99.99,0.000000,,2013-11-01 12:52:00,
2013-11-01 07:01:00,26.0,21.0,-100.00,SW,233,1.0,6.0,81,0.00,,,-99.99,0.000000,,2013-11-01 13:01:00,
2013-11-01 07:42:00,26.0,21.0,-100.00,WNW,291,3.0,5.0,82,0.00,,,-99.99,0.000000,,2013-11-01 13:42:00,
2013-11-01 07:52:00,26.0,21.0,-100.00,WNW,291,3.0,5.0,82,0.00,,,-99.99,0.000000,,2013-11-01 13:52:00,
2013-11-01 08:02:00,26.0,21.0,-100.00,WNW,291,3.0,5.0,82,0.00,,,-99.99,0.000000,,2013-11-01 14:02:00,
2013-11-01 08:11:00,26.0,21.0,-100.00,WNW,291,3.0,5.0,82,0.00,,,-99.99,0.000000,,2013-11-01 14:11:00,
2013-11-01 08:42:00,30.0,22.0,-100.00,West,276,2.0,6.0,73,0.00,,,-99.99,22.000000,,2013-11-01 14:42:00,
2013-11-01 09:12:00,34.0,24.0,-100.00,WNW,302,4.0,5.0,67,-99.99,,,0.01,181.000000,,2013-11-01 15:12:00,
2013-11-01 09:44:00,34.0,24.0,-100.00,WNW,302,4.0,5.0,67,-99.99,,,0.01,181.000000,,2013-11-01 15:44:00,
2013-11-01 09:54:00,34.0,24.0,-100.00,WNW,302,4.0,5.0,67,-99.99,,,0.01,181.000000,,2013-11-01 15:54:00,
2013-11-01 10:04:00,34.0,24.0,-100.00,WNW,302,4.0,5.0,67,-99.99,,,0.01,181.000000,,2013-11-01 16:04:00,
2013-11-01 10:12:00,36.0,24.0,-100.00,South,186,4.0,7.0,61,0.00,,,-99.99,348.000000,,2013-11-01 16:12:00,
2013-11-01 10:43:00,36.0,24.0,-100.00,South,186,4.0,7.0,61,0.00,,,-99.99,348.000000,,2013-11-01 16:43:00,
2013-11-01 10:53:00,36.0,24.0,-100.00,South,186,4.0,7.0,61,0.00,,,-99.99,348.000000,,2013-11-01 16:53:00,
2013-11-01 11:02:00,36.0,24.0,-100.00,South,186,4.0,7.0,61,0.00,,,-99.99,348.000000,,2013-11-01 17:02:00,
2013-11-01 11:12:00,40.0,25.0,-100.00,WNW,293,4.0,7.0,55,0.00,,,0.00,490.000000,,2013-11-01 17:12:00,
2013-11-01 11:43:00,40.0,25.0,-100.00,WNW,293,4.0,7.0,55,0.00,,,0.00,490.000000,,2013-11-01 17:43:00,
2013-11-01 11:52:00,40.0,25.0,-100.00,WNW,293,4.0,7.0,55,0.00,,,0.00,490.000000,,2013-11-01 17:52:00,
2013-11-01 12:01:00,40.0,25.0,-100.00,WNW,293,4.0,7.0,55,0.00,,,0.00,490.000000,,2013-11-01 18:01:00,
2013-11-01 12:12:00,42.0,26.0,-100.00,SSW,210,4.0,9.0,52,0.00,,,0.00,585.000000,,2013-11-01 18:12:00,
2013-11-01 12:42:00,42.0,26.0,-100.00,SSW,210,4.0,9.0,52,0.00,,,0.00,585.000000,,2013-11-01 18:42:00,
2013-11-01 12:52:00,42.0,26.0,-100.00,SSW,210,4.0,9.0,52,0.00,,,0.00,585.000000,,2013-11-01 18:52:00,
2013-11-01 13:01:00,42.0,26.0,-100.00,SSW,210,4.0,9.0,52,0.00,,,0.00,585.000000,,2013-11-01 19:01:00,
2013-11-01 13:12:00,44.0,27.0,-100.00,SSW,193,6.0,12.0,50,0.00,,,0.00,622.000000,,2013-11-01 19:12:00,
2013-11-01 13:42:00,44.0,27.0,-100.00,SSW,193,6.0,12.0,50,0.00,,,0.00,622.000000,,2013-11-01 19:42:00,
2013-11-01 13:52:00,44.0,27.0,-100.00,SSW,193,6.0,12.0,50,0.00,,,0.00,622.000000,,2013-11-01 19:52:00,
2013-11-01 14:02:00,44.0,27.0,-100.00,SSW,193,6.0,12.0,50,0.00,,,0.00,622.000000,,2013-11-01 20:02:00,
2013-11-01 14:42:00,47.0,27.0,-100.00,SSW,209,5.0,13.0,45,0.00,,,0.00,600.000000,,2013-11-01 20:42:00,
2013-11-01 14:52:00,47.0,27.0,-100.00,SSW,209,5.0,13.0,45,0.00,,,0.00,600.000000,,2013-11-01 20:52:00,
2013-11-01 15:01:00,47.0,27.0,-100.00,SSW,209,5.0,13.0,45,0.00,,,0.00,600.000000,,2013-11-01 21:01:00,
2013-11-01 15:11:00,47.0,27.0,-100.00,SSW,209,5.0,13.0,45,0.00,,,0.00,600.000000,,2013-11-01 21:11:00,
2013-11-01 15:12:00,47.0,25.0,-100.00,South,178,7.0,14.0,42,0.00,,,0.00,522.000000,,2013-11-01 21:12:00,
2013-11-01 15:43:00,47.0,25.0,-100.00,South,178,7.0,14.0,42,0.00,,,0.00,522.000000,,2013-11-01 21:43:00,
2013-11-01 15:55:00,47.0,25.0,-100.00,South,178,7.0,14.0,42,0.00,,,0.00,522.000000,,2013-11-01 21:55:00,
2013-11-01 16:03:00,47.0,25.0,-100.00,South,178,7.0,14.0,42,0.00,,,0.00,522.000000,,2013-11-01 22:03:00,
2013-11-01 16:12:00,44.0,25.0,-100.00,South,183,7.0,14.0,46,0.00,,,0.00,246.000000,,2013-11-01 22:12:00,
2013-11-01 16:42:00,44.0,25.0,-100.00,South,183,7.0,14.0,46,0.00,,,0.00,246.000000,,2013-11-01 22:42:00,
2013-11-01 16:53:00,44.0,25.0,-100.00,South,183,7.0,14.0,46,0.00,,,0.00,246.000000,,2013-11-01 22:53:00,
2013-11-01 17:02:00,44.0,25.0,-100.00,South,183,7.0,14.0,46,0.00,,,0.00,246.000000,,2013-11-01 23:02:00,
2013-11-01 17:42:00,43.0,25.0,-100.00,South,184,7.0,13.0,48,0.00,,,0.00,47.000000,,2013-11-01 23:42:00,
2013-11-01 17:53:00,43.0,25.0,-100.00,South,184,7.0,13.0,48,0.00,,,0.00,47.000000,,2013-11-01 23:53:00,
2013-11-01 18:02:00,43.0,25.0,-100.00,South,184,7.0,13.0,48,0.00,,,0.00,47.000000,,2013-11-02 00:02:00,
2013-11-01 18:11:00,43.0,25.0,-100.00,South,184,7.0,13.0,48,0.00,,,0.00,47.000000,,2013-11-02 00:11:00,
2013-11-01 18:42:00,40.0,22.0,-100.00,South,174,6.0,11.0,49,0.00,,,0.00,41.000000,,2013-11-02 00:42:00,
2013-11-01 18:52:00,40.0,22.0,-100.00,South,174,6.0,11.0,49,0.00,,,0.00,41.000000,,2013-11-02 00:52:00,
2013-11-01 19:02:00,40.0,22.0,-100.00,South,174,6.0,11.0,49,0.00,,,0.00,41.000000,,2013-11-02 01:02:00,
2013-11-01 19:11:00,40.0,22.0,-100.00,South,174,6.0,11.0,49,0.00,,,0.00,41.000000,,2013-11-02 01:11:00,
2013-11-01 19:42:00,39.0,21.0,-100.00,South,186,7.0,10.0,48,0.00,,,0.00,0.000000,,2013-11-02 01:42:00,
2013-11-01 19:52:00,39.0,21.0,-100.00,South,186,7.0,10.0,48,0.00,,,0.00,0.000000,,2013-11-02 01:52:00,
2013-11-01 20:02:00,39.0,21.0,-100.00,South,186,7.0,10.0,48,0.00,,,0.00,0.000000,,2013-11-02 02:02:00,
2013-11-01 20:11:00,39.0,21.0,-100.00,South,186,7.0,10.0,48,0.00,,,0.00,0.000000,,2013-11-02 02:11:00,
2013-11-01 20:42:00,38.0,21.0,-100.00,SW,215,6.0,10.0,49,0.00,,,0.00,0.000000,,2013-11-02 02:42:00,
2013-11-01 20:53:00,38.0,21.0,-100.00,SW,215,6.0,10.0,49,0.00,,,0.00,0.000000,,2013-11-02 02:53:00,
2013-11-01 21:02:00,38.0,21.0,-100.00,SW,215,6.0,10.0,49,0.00,,,0.00,0.000000,,2013-11-02 03:02:00,
2013-11-01 21:11:00,38.0,21.0,-100.00,SW,215,6.0,10.0,49,0.00,,,0.00,0.000000,,2013-11-02 03:11:00,
2013-11-01 21:12:00,36.0,21.0,-100.00,SW,233,3.0,7.0,53,0.00,,,0.00,0.000000,,2013-11-02 03:12:00,
2013-11-01 21:44:00,36.0,21.0,-100.00,SW,233,3.0,7.0,53,0.00,,,0.00,0.000000,,2013-11-02 03:44:00,
2013-11-01 21:53:00,36.0,21.0,-100.00,SW,233,3.0,7.0,53,0.00,,,0.00,0.000000,,2013-11-02 03:53:00,
2013-11-01 22:04:00,36.0,21.0,-100.00,SW,233,3.0,7.0,53,0.00,,,0.00,0.000000,,2013-11-02 04:04:00,
2013-11-01 22:12:00,36.0,21.0,-100.00,ENE,60,3.0,4.0,54,0.00,,,-99.99,0.000000,,2013-11-02 04:12:00,
2013-11-01 22:44:00,36.0,21.0,-100.00,ENE,60,3.0,4.0,54,0.00,,,-99.99,0.000000,,2013-11-02 04:44:00,
2013-11-01 22:54:00,36.0,21.0,-100.00,ENE,60,3.0,4.0,54,0.00,,,-99.99,0.000000,,2013-11-02 04:54:00,
2013-11-01 23:04:00,36.0,21.0,-100.00,ENE,60,3.0,4.0,54,0.00,,,-99.99,0.000000,,2013-11-02 05:04:00,
2013-11-01 23:12:00,36.0,20.0,-100.00,WSW,252,2.0,5.0,52,0.00,,,0.00,0.000000,,2013-11-02 05:12:00,
2013-11-01 23:42:00,36.0,20.0,-100.00,WSW,252,2.0,5.0,52,0.00,,,0.00,0.000000,,2013-11-02 05:42:00,
2013-11-01 23:52:00,36.0,20.0,-100.00,WSW,252,2.0,5.0,52,0.00,,,0.00,0.000000,,2013-11-02 05:52:00,